sensor_id;sensor_type;location;lat;lon;timestamp;P1;durP1;ratioP1;P2;durP2;ratioP2
2618;SDS011;1319;52.346;13.096;2024-01-06T00:02:22;69.33;;;26.30;;
2618;SDS011;1319;52.346;13.096;2024-01-06T00:04:47;85.60;;;28.47;;
2618;SDS011;1319;52.346;13.096;2024-01-06T00:07:12;90.70;;;28.33;;
2618;SDS011;1319;52.346;13.096;2024-01-06T00:09:38;91.47;;;29.50;;
2618;SDS011;1319;52.346;13.096;2024-01-06T00:12:04;84.10;;;28.77;;
2618;SDS011;1319;52.346;13.096;2024-01-06T00:14:29;87.07;;;29.80;;
2618;SDS011;1319;52.346;13.096;2024-01-06T00:16:54;98.20;;;29.33;;
2618;SDS011;1319;52.346;13.096;2024-01-06T00:19:19;103.40;;;29.47;;
2618;SDS011;1319;52.346;13.096;2024-01-06T00:21:44;80.93;;;28.57;;
2618;SDS011;1319;52.346;13.096;2024-01-06T00:24:10;84.40;;;28.80;;
2618;SDS011;1319;52.346;13.096;2024-01-06T00:26:35;100.27;;;30.60;;
2618;SDS011;1319;52.346;13.096;2024-01-06T00:29:00;91.37;;;29.00;;
2618;SDS011;1319;52.346;13.096;2024-01-06T00:31:26;91.77;;;28.40;;
2618;SDS011;1319;52.346;13.096;2024-01-06T00:33:51;92.83;;;28.73;;
2618;SDS011;1319;52.346;13.096;2024-01-06T00:36:16;95.60;;;29.40;;
2618;SDS011;1319;52.346;13.096;2024-01-06T00:38:41;94.23;;;30.90;;
2618;SDS011;1319;52.346;13.096;2024-01-06T00:41:06;94.07;;;30.17;;
2618;SDS011;1319;52.346;13.096;2024-01-06T00:43:32;91.93;;;28.63;;
2618;SDS011;1319;52.346;13.096;2024-01-06T00:45:57;101.37;;;30.87;;
2618;SDS011;1319;52.346;13.096;2024-01-06T00:48:22;84.17;;;29.63;;
2618;SDS011;1319;52.346;13.096;2024-01-06T00:50:47;93.23;;;30.83;;
2618;SDS011;1319;52.346;13.096;2024-01-06T00:53:12;93.93;;;30.63;;
2618;SDS011;1319;52.346;13.096;2024-01-06T00:55:38;96.23;;;29.20;;
2618;SDS011;1319;52.346;13.096;2024-01-06T00:58:03;101.83;;;30.03;;
2618;SDS011;1319;52.346;13.096;2024-01-06T01:00:28;92.83;;;30.67;;
2618;SDS011;1319;52.346;13.096;2024-01-06T01:02:53;91.90;;;30.47;;
2618;SDS011;1319;52.346;13.096;2024-01-06T01:05:19;97.47;;;30.17;;
2618;SDS011;1319;52.346;13.096;2024-01-06T01:07:44;95.40;;;30.07;;
2618;SDS011;1319;52.346;13.096;2024-01-06T01:10:09;98.80;;;31.67;;
2618;SDS011;1319;52.346;13.096;2024-01-06T01:12:34;105.57;;;30.53;;
2618;SDS011;1319;52.346;13.096;2024-01-06T01:15:00;100.60;;;30.70;;
2618;SDS011;1319;52.346;13.096;2024-01-06T01:17:25;110.73;;;31.13;;
2618;SDS011;1319;52.346;13.096;2024-01-06T01:19:50;99.17;;;30.47;;
2618;SDS011;1319;52.346;13.096;2024-01-06T01:22:15;101.13;;;30.70;;
2618;SDS011;1319;52.346;13.096;2024-01-06T01:24:41;95.57;;;30.13;;
2618;SDS011;1319;52.346;13.096;2024-01-06T01:27:06;96.67;;;31.87;;
2618;SDS011;1319;52.346;13.096;2024-01-06T01:29:32;100.30;;;31.90;;
2618;SDS011;1319;52.346;13.096;2024-01-06T01:31:57;102.73;;;32.80;;
2618;SDS011;1319;52.346;13.096;2024-01-06T01:34:22;95.43;;;30.97;;
2618;SDS011;1319;52.346;13.096;2024-01-06T01:36:47;101.53;;;31.20;;
2618;SDS011;1319;52.346;13.096;2024-01-06T01:39:12;93.00;;;31.30;;
2618;SDS011;1319;52.346;13.096;2024-01-06T01:41:39;121.07;;;33.00;;
2618;SDS011;1319;52.346;13.096;2024-01-06T01:44:04;100.90;;;32.13;;
2618;SDS011;1319;52.346;13.096;2024-01-06T01:46:29;103.47;;;31.13;;
2618;SDS011;1319;52.346;13.096;2024-01-06T01:48:55;109.00;;;32.47;;
2618;SDS011;1319;52.346;13.096;2024-01-06T01:51:21;116.53;;;30.67;;
2618;SDS011;1319;52.346;13.096;2024-01-06T01:53:46;97.83;;;31.00;;
2618;SDS011;1319;52.346;13.096;2024-01-06T01:56:11;102.43;;;30.57;;
2618;SDS011;1319;52.346;13.096;2024-01-06T01:58:37;97.83;;;31.43;;
2618;SDS011;1319;52.346;13.096;2024-01-06T02:01:02;111.50;;;33.20;;
2618;SDS011;1319;52.346;13.096;2024-01-06T02:03:29;94.90;;;30.27;;
2618;SDS011;1319;52.346;13.096;2024-01-06T02:05:54;92.73;;;30.33;;
2618;SDS011;1319;52.346;13.096;2024-01-06T02:08:20;94.77;;;30.93;;
2618;SDS011;1319;52.346;13.096;2024-01-06T02:10:45;104.57;;;31.93;;
2618;SDS011;1319;52.346;13.096;2024-01-06T02:13:10;95.43;;;30.50;;
2618;SDS011;1319;52.346;13.096;2024-01-06T02:15:36;103.27;;;30.27;;
2618;SDS011;1319;52.346;13.096;2024-01-06T02:18:02;100.77;;;30.70;;
2618;SDS011;1319;52.346;13.096;2024-01-06T02:20:27;101.30;;;30.60;;
2618;SDS011;1319;52.346;13.096;2024-01-06T02:22:54;102.53;;;31.37;;
2618;SDS011;1319;52.346;13.096;2024-01-06T02:25:19;94.17;;;30.03;;
2618;SDS011;1319;52.346;13.096;2024-01-06T02:27:44;96.87;;;29.87;;
2618;SDS011;1319;52.346;13.096;2024-01-06T02:30:09;100.53;;;30.37;;
2618;SDS011;1319;52.346;13.096;2024-01-06T02:32:35;94.53;;;30.63;;
2618;SDS011;1319;52.346;13.096;2024-01-06T02:35:00;103.57;;;30.37;;
2618;SDS011;1319;52.346;13.096;2024-01-06T02:37:25;91.20;;;29.87;;
2618;SDS011;1319;52.346;13.096;2024-01-06T02:39:51;94.93;;;27.87;;
2618;SDS011;1319;52.346;13.096;2024-01-06T02:42:16;104.67;;;30.13;;
2618;SDS011;1319;52.346;13.096;2024-01-06T02:44:42;95.30;;;29.73;;
2618;SDS011;1319;52.346;13.096;2024-01-06T02:47:07;96.60;;;29.30;;
2618;SDS011;1319;52.346;13.096;2024-01-06T02:49:32;100.13;;;27.60;;
2618;SDS011;1319;52.346;13.096;2024-01-06T02:51:57;101.30;;;30.27;;
2618;SDS011;1319;52.346;13.096;2024-01-06T02:54:22;89.10;;;28.33;;
2618;SDS011;1319;52.346;13.096;2024-01-06T02:56:48;95.10;;;28.13;;
2618;SDS011;1319;52.346;13.096;2024-01-06T02:59:13;101.03;;;28.33;;
2618;SDS011;1319;52.346;13.096;2024-01-06T03:01:38;96.97;;;28.77;;
2618;SDS011;1319;52.346;13.096;2024-01-06T03:04:03;94.87;;;29.60;;
2618;SDS011;1319;52.346;13.096;2024-01-06T03:06:29;90.80;;;29.57;;
2618;SDS011;1319;52.346;13.096;2024-01-06T03:08:54;103.83;;;30.70;;
2618;SDS011;1319;52.346;13.096;2024-01-06T03:11:19;85.17;;;27.77;;
2618;SDS011;1319;52.346;13.096;2024-01-06T03:13:44;91.87;;;27.07;;
2618;SDS011;1319;52.346;13.096;2024-01-06T03:16:11;89.57;;;29.23;;
2618;SDS011;1319;52.346;13.096;2024-01-06T03:18:36;95.97;;;28.30;;
2618;SDS011;1319;52.346;13.096;2024-01-06T03:21:01;92.00;;;28.83;;
2618;SDS011;1319;52.346;13.096;2024-01-06T03:23:26;92.30;;;28.47;;
2618;SDS011;1319;52.346;13.096;2024-01-06T03:25:52;88.53;;;27.90;;
2618;SDS011;1319;52.346;13.096;2024-01-06T03:28:17;90.63;;;26.50;;
2618;SDS011;1319;52.346;13.096;2024-01-06T03:30:42;91.40;;;26.50;;
2618;SDS011;1319;52.346;13.096;2024-01-06T03:33:07;94.93;;;27.73;;
2618;SDS011;1319;52.346;13.096;2024-01-06T03:35:32;88.10;;;27.20;;
2618;SDS011;1319;52.346;13.096;2024-01-06T03:37:58;105.63;;;29.87;;
2618;SDS011;1319;52.346;13.096;2024-01-06T03:40:23;95.70;;;27.03;;
2618;SDS011;1319;52.346;13.096;2024-01-06T03:42:48;96.20;;;26.50;;
2618;SDS011;1319;52.346;13.096;2024-01-06T03:45:13;95.73;;;27.30;;
2618;SDS011;1319;52.346;13.096;2024-01-06T03:47:38;84.23;;;26.80;;
2618;SDS011;1319;52.346;13.096;2024-01-06T03:50:04;100.33;;;29.07;;
2618;SDS011;1319;52.346;13.096;2024-01-06T03:52:29;101.87;;;30.90;;
2618;SDS011;1319;52.346;13.096;2024-01-06T03:54:54;105.23;;;30.97;;
2618;SDS011;1319;52.346;13.096;2024-01-06T03:57:20;102.17;;;29.90;;
2618;SDS011;1319;52.346;13.096;2024-01-06T03:59:45;88.63;;;27.43;;
2618;SDS011;1319;52.346;13.096;2024-01-06T04:02:10;93.77;;;27.53;;
2618;SDS011;1319;52.346;13.096;2024-01-06T04:04:35;82.80;;;26.00;;
2618;SDS011;1319;52.346;13.096;2024-01-06T04:07:00;99.50;;;27.73;;
2618;SDS011;1319;52.346;13.096;2024-01-06T04:09:26;89.87;;;26.83;;
2618;SDS011;1319;52.346;13.096;2024-01-06T04:11:51;73.17;;;24.43;;
2618;SDS011;1319;52.346;13.096;2024-01-06T04:14:17;79.70;;;23.80;;
2618;SDS011;1319;52.346;13.096;2024-01-06T04:16:42;85.23;;;23.03;;
2618;SDS011;1319;52.346;13.096;2024-01-06T04:19:07;80.33;;;24.30;;
2618;SDS011;1319;52.346;13.096;2024-01-06T04:21:33;76.33;;;24.13;;
2618;SDS011;1319;52.346;13.096;2024-01-06T04:23:59;77.13;;;24.20;;
2618;SDS011;1319;52.346;13.096;2024-01-06T04:26:24;74.37;;;22.03;;
2618;SDS011;1319;52.346;13.096;2024-01-06T04:28:49;74.50;;;22.17;;
2618;SDS011;1319;52.346;13.096;2024-01-06T04:31:14;82.33;;;24.60;;
2618;SDS011;1319;52.346;13.096;2024-01-06T04:33:39;78.70;;;24.40;;
2618;SDS011;1319;52.346;13.096;2024-01-06T04:36:06;75.23;;;23.43;;
2618;SDS011;1319;52.346;13.096;2024-01-06T04:38:31;80.97;;;23.90;;
2618;SDS011;1319;52.346;13.096;2024-01-06T04:40:58;83.47;;;25.40;;
2618;SDS011;1319;52.346;13.096;2024-01-06T04:43:23;81.30;;;24.90;;
2618;SDS011;1319;52.346;13.096;2024-01-06T04:45:48;87.73;;;25.97;;
2618;SDS011;1319;52.346;13.096;2024-01-06T04:48:15;89.83;;;22.83;;
2618;SDS011;1319;52.346;13.096;2024-01-06T04:50:40;94.00;;;26.10;;
2618;SDS011;1319;52.346;13.096;2024-01-06T04:53:05;109.80;;;28.47;;
2618;SDS011;1319;52.346;13.096;2024-01-06T04:55:30;89.27;;;26.47;;
2618;SDS011;1319;52.346;13.096;2024-01-06T04:57:55;98.13;;;27.67;;
2618;SDS011;1319;52.346;13.096;2024-01-06T05:00:21;91.97;;;27.80;;
2618;SDS011;1319;52.346;13.096;2024-01-06T05:02:46;86.83;;;26.17;;
2618;SDS011;1319;52.346;13.096;2024-01-06T05:05:11;90.30;;;25.67;;
2618;SDS011;1319;52.346;13.096;2024-01-06T05:07:36;101.03;;;27.93;;
2618;SDS011;1319;52.346;13.096;2024-01-06T05:10:02;81.07;;;25.87;;
2618;SDS011;1319;52.346;13.096;2024-01-06T05:12:27;97.77;;;28.30;;
2618;SDS011;1319;52.346;13.096;2024-01-06T05:14:52;91.03;;;26.53;;
2618;SDS011;1319;52.346;13.096;2024-01-06T05:17:17;78.70;;;23.03;;
2618;SDS011;1319;52.346;13.096;2024-01-06T05:19:43;84.70;;;25.60;;
2618;SDS011;1319;52.346;13.096;2024-01-06T05:22:08;93.47;;;27.67;;
2618;SDS011;1319;52.346;13.096;2024-01-06T05:24:33;93.73;;;25.80;;
2618;SDS011;1319;52.346;13.096;2024-01-06T05:26:58;99.97;;;28.47;;
2618;SDS011;1319;52.346;13.096;2024-01-06T05:29:23;83.93;;;25.03;;
2618;SDS011;1319;52.346;13.096;2024-01-06T05:31:50;85.03;;;25.43;;
2618;SDS011;1319;52.346;13.096;2024-01-06T05:34:16;89.80;;;25.80;;
2618;SDS011;1319;52.346;13.096;2024-01-06T05:36:41;93.60;;;24.87;;
2618;SDS011;1319;52.346;13.096;2024-01-06T05:39:06;92.17;;;26.67;;
2618;SDS011;1319;52.346;13.096;2024-01-06T05:41:37;95.87;;;27.07;;
2618;SDS011;1319;52.346;13.096;2024-01-06T05:44:02;88.37;;;24.67;;
2618;SDS011;1319;52.346;13.096;2024-01-06T05:46:27;98.90;;;27.53;;
2618;SDS011;1319;52.346;13.096;2024-01-06T05:48:52;104.87;;;28.30;;
2618;SDS011;1319;52.346;13.096;2024-01-06T05:51:18;96.57;;;28.27;;
2618;SDS011;1319;52.346;13.096;2024-01-06T05:53:43;112.03;;;27.60;;
2618;SDS011;1319;52.346;13.096;2024-01-06T05:56:08;100.50;;;27.43;;
2618;SDS011;1319;52.346;13.096;2024-01-06T05:58:34;95.27;;;26.33;;
2618;SDS011;1319;52.346;13.096;2024-01-06T06:00:59;96.20;;;28.30;;
2618;SDS011;1319;52.346;13.096;2024-01-06T06:03:25;100.80;;;28.90;;
2618;SDS011;1319;52.346;13.096;2024-01-06T06:05:50;112.37;;;30.13;;
2618;SDS011;1319;52.346;13.096;2024-01-06T06:08:15;103.37;;;31.33;;
2618;SDS011;1319;52.346;13.096;2024-01-06T06:10:40;108.70;;;29.93;;
2618;SDS011;1319;52.346;13.096;2024-01-06T06:13:16;103.80;;;28.63;;
2618;SDS011;1319;52.346;13.096;2024-01-06T06:15:41;94.57;;;27.53;;
2618;SDS011;1319;52.346;13.096;2024-01-06T06:18:06;103.40;;;30.23;;
2618;SDS011;1319;52.346;13.096;2024-01-06T06:20:32;117.87;;;30.27;;
2618;SDS011;1319;52.346;13.096;2024-01-06T06:22:57;106.50;;;28.13;;
2618;SDS011;1319;52.346;13.096;2024-01-06T06:25:22;108.83;;;28.17;;
2618;SDS011;1319;52.346;13.096;2024-01-06T06:27:47;92.10;;;25.20;;
2618;SDS011;1319;52.346;13.096;2024-01-06T06:30:12;108.47;;;30.60;;
2618;SDS011;1319;52.346;13.096;2024-01-06T06:32:38;107.97;;;27.53;;
2618;SDS011;1319;52.346;13.096;2024-01-06T06:35:03;103.07;;;28.40;;
2618;SDS011;1319;52.346;13.096;2024-01-06T06:37:28;100.30;;;27.30;;
2618;SDS011;1319;52.346;13.096;2024-01-06T06:39:54;106.27;;;28.33;;
2618;SDS011;1319;52.346;13.096;2024-01-06T06:42:19;104.87;;;28.83;;
2618;SDS011;1319;52.346;13.096;2024-01-06T06:44:44;97.30;;;29.67;;
2618;SDS011;1319;52.346;13.096;2024-01-06T06:47:09;108.30;;;29.20;;
2618;SDS011;1319;52.346;13.096;2024-01-06T06:49:34;105.30;;;31.43;;
2618;SDS011;1319;52.346;13.096;2024-01-06T06:52:00;106.43;;;30.83;;
2618;SDS011;1319;52.346;13.096;2024-01-06T06:54:25;97.17;;;28.63;;
2618;SDS011;1319;52.346;13.096;2024-01-06T06:56:50;89.20;;;27.57;;
2618;SDS011;1319;52.346;13.096;2024-01-06T06:59:16;96.10;;;29.63;;
2618;SDS011;1319;52.346;13.096;2024-01-06T07:01:41;102.93;;;29.00;;
2618;SDS011;1319;52.346;13.096;2024-01-06T07:04:06;106.10;;;29.17;;
2618;SDS011;1319;52.346;13.096;2024-01-06T07:06:32;100.90;;;29.23;;
2618;SDS011;1319;52.346;13.096;2024-01-06T07:08:57;97.80;;;29.50;;
2618;SDS011;1319;52.346;13.096;2024-01-06T07:11:22;96.97;;;27.63;;
2618;SDS011;1319;52.346;13.096;2024-01-06T07:13:47;105.07;;;30.50;;
2618;SDS011;1319;52.346;13.096;2024-01-06T07:16:12;97.77;;;29.33;;
2618;SDS011;1319;52.346;13.096;2024-01-06T07:18:38;95.10;;;28.57;;
2618;SDS011;1319;52.346;13.096;2024-01-06T07:21:06;103.30;;;27.23;;
2618;SDS011;1319;52.346;13.096;2024-01-06T07:23:34;99.70;;;31.00;;
2618;SDS011;1319;52.346;13.096;2024-01-06T07:25:59;103.13;;;30.43;;
2618;SDS011;1319;52.346;13.096;2024-01-06T07:28:25;98.73;;;30.10;;
2618;SDS011;1319;52.346;13.096;2024-01-06T07:30:50;115.40;;;30.13;;
2618;SDS011;1319;52.346;13.096;2024-01-06T07:33:15;104.13;;;31.60;;
2618;SDS011;1319;52.346;13.096;2024-01-06T07:35:40;103.40;;;30.97;;
2618;SDS011;1319;52.346;13.096;2024-01-06T07:38:08;99.23;;;29.93;;
2618;SDS011;1319;52.346;13.096;2024-01-06T07:40:35;105.20;;;31.23;;
2618;SDS011;1319;52.346;13.096;2024-01-06T07:43:00;109.40;;;30.93;;
2618;SDS011;1319;52.346;13.096;2024-01-06T07:45:26;126.57;;;34.27;;
2618;SDS011;1319;52.346;13.096;2024-01-06T07:47:52;117.73;;;32.47;;
2618;SDS011;1319;52.346;13.096;2024-01-06T07:50:17;114.53;;;32.37;;
2618;SDS011;1319;52.346;13.096;2024-01-06T07:52:42;102.77;;;32.47;;
2618;SDS011;1319;52.346;13.096;2024-01-06T07:55:07;111.10;;;33.27;;
2618;SDS011;1319;52.346;13.096;2024-01-06T07:57:33;112.40;;;32.90;;
2618;SDS011;1319;52.346;13.096;2024-01-06T07:59:58;106.27;;;32.20;;
2618;SDS011;1319;52.346;13.096;2024-01-06T08:02:23;104.10;;;30.43;;
2618;SDS011;1319;52.346;13.096;2024-01-06T08:04:49;103.27;;;30.07;;
2618;SDS011;1319;52.346;13.096;2024-01-06T08:07:14;116.00;;;33.37;;
2618;SDS011;1319;52.346;13.096;2024-01-06T08:09:39;100.03;;;30.37;;
2618;SDS011;1319;52.346;13.096;2024-01-06T08:12:04;110.57;;;30.53;;
2618;SDS011;1319;52.346;13.096;2024-01-06T08:14:30;105.43;;;30.87;;
2618;SDS011;1319;52.346;13.096;2024-01-06T08:16:55;104.17;;;30.30;;
2618;SDS011;1319;52.346;13.096;2024-01-06T08:19:20;99.70;;;29.73;;
2618;SDS011;1319;52.346;13.096;2024-01-06T08:21:45;91.97;;;26.73;;
2618;SDS011;1319;52.346;13.096;2024-01-06T08:24:12;100.63;;;29.77;;
2618;SDS011;1319;52.346;13.096;2024-01-06T08:26:37;92.40;;;29.37;;
2618;SDS011;1319;52.346;13.096;2024-01-06T08:29:02;105.40;;;30.67;;
2618;SDS011;1319;52.346;13.096;2024-01-06T08:31:28;94.57;;;29.67;;
2618;SDS011;1319;52.346;13.096;2024-01-06T08:33:53;92.90;;;27.70;;
2618;SDS011;1319;52.346;13.096;2024-01-06T08:36:18;95.30;;;27.67;;
2618;SDS011;1319;52.346;13.096;2024-01-06T08:38:43;98.60;;;28.27;;
2618;SDS011;1319;52.346;13.096;2024-01-06T08:41:09;85.13;;;27.30;;
2618;SDS011;1319;52.346;13.096;2024-01-06T08:43:34;99.30;;;27.97;;
2618;SDS011;1319;52.346;13.096;2024-01-06T08:45:59;99.37;;;27.57;;
2618;SDS011;1319;52.346;13.096;2024-01-06T08:48:25;89.00;;;27.53;;
2618;SDS011;1319;52.346;13.096;2024-01-06T08:50:50;97.50;;;29.37;;
2618;SDS011;1319;52.346;13.096;2024-01-06T08:53:16;105.73;;;29.73;;
2618;SDS011;1319;52.346;13.096;2024-01-06T08:55:41;93.33;;;26.20;;
2618;SDS011;1319;52.346;13.096;2024-01-06T08:58:06;98.63;;;28.87;;
2618;SDS011;1319;52.346;13.096;2024-01-06T09:00:31;99.43;;;28.37;;
2618;SDS011;1319;52.346;13.096;2024-01-06T09:02:57;96.70;;;27.43;;
2618;SDS011;1319;52.346;13.096;2024-01-06T09:05:22;99.93;;;29.17;;
2618;SDS011;1319;52.346;13.096;2024-01-06T09:07:47;105.17;;;27.37;;
2618;SDS011;1319;52.346;13.096;2024-01-06T09:10:15;94.10;;;28.07;;
2618;SDS011;1319;52.346;13.096;2024-01-06T09:12:40;98.43;;;27.80;;
2618;SDS011;1319;52.346;13.096;2024-01-06T09:15:06;102.97;;;28.80;;
2618;SDS011;1319;52.346;13.096;2024-01-06T09:17:32;92.20;;;24.77;;
2618;SDS011;1319;52.346;13.096;2024-01-06T09:19:57;94.87;;;28.43;;
2618;SDS011;1319;52.346;13.096;2024-01-06T09:22:23;100.80;;;28.07;;
2618;SDS011;1319;52.346;13.096;2024-01-06T09:24:48;95.43;;;26.23;;
2618;SDS011;1319;52.346;13.096;2024-01-06T09:27:14;99.17;;;27.77;;
2618;SDS011;1319;52.346;13.096;2024-01-06T09:29:40;94.77;;;26.03;;
2618;SDS011;1319;52.346;13.096;2024-01-06T09:32:05;89.30;;;25.70;;
2618;SDS011;1319;52.346;13.096;2024-01-06T09:34:30;97.77;;;26.90;;
2618;SDS011;1319;52.346;13.096;2024-01-06T09:36:55;91.60;;;28.60;;
2618;SDS011;1319;52.346;13.096;2024-01-06T09:39:21;96.70;;;27.10;;
2618;SDS011;1319;52.346;13.096;2024-01-06T09:41:46;90.63;;;25.93;;
2618;SDS011;1319;52.346;13.096;2024-01-06T09:44:11;74.17;;;23.17;;
2618;SDS011;1319;52.346;13.096;2024-01-06T09:46:36;90.97;;;26.87;;
2618;SDS011;1319;52.346;13.096;2024-01-06T09:49:03;110.17;;;27.77;;
2618;SDS011;1319;52.346;13.096;2024-01-06T09:51:28;95.67;;;26.37;;
2618;SDS011;1319;52.346;13.096;2024-01-06T09:54:00;93.27;;;25.23;;
2618;SDS011;1319;52.346;13.096;2024-01-06T09:56:26;95.83;;;25.03;;
2618;SDS011;1319;52.346;13.096;2024-01-06T09:58:51;89.03;;;25.03;;
2618;SDS011;1319;52.346;13.096;2024-01-06T10:01:17;91.17;;;25.27;;
2618;SDS011;1319;52.346;13.096;2024-01-06T10:03:42;92.30;;;26.47;;
2618;SDS011;1319;52.346;13.096;2024-01-06T10:06:08;91.43;;;26.33;;
2618;SDS011;1319;52.346;13.096;2024-01-06T10:08:34;92.87;;;27.77;;
2618;SDS011;1319;52.346;13.096;2024-01-06T10:11:00;94.67;;;26.23;;
2618;SDS011;1319;52.346;13.096;2024-01-06T10:13:25;83.70;;;24.23;;
2618;SDS011;1319;52.346;13.096;2024-01-06T10:15:51;88.80;;;26.70;;
2618;SDS011;1319;52.346;13.096;2024-01-06T10:18:16;85.00;;;25.87;;
2618;SDS011;1319;52.346;13.096;2024-01-06T10:20:41;93.37;;;28.17;;
2618;SDS011;1319;52.346;13.096;2024-01-06T10:23:06;88.23;;;27.63;;
2618;SDS011;1319;52.346;13.096;2024-01-06T10:25:32;93.00;;;29.47;;
2618;SDS011;1319;52.346;13.096;2024-01-06T10:27:57;96.47;;;29.23;;
2618;SDS011;1319;52.346;13.096;2024-01-06T10:30:25;85.67;;;26.03;;
2618;SDS011;1319;52.346;13.096;2024-01-06T10:32:50;112.67;;;30.10;;
2618;SDS011;1319;52.346;13.096;2024-01-06T10:35:17;107.77;;;29.13;;
2618;SDS011;1319;52.346;13.096;2024-01-06T10:37:42;105.13;;;28.33;;
2618;SDS011;1319;52.346;13.096;2024-01-06T10:40:08;99.67;;;26.53;;
2618;SDS011;1319;52.346;13.096;2024-01-06T10:42:33;99.90;;;27.77;;
2618;SDS011;1319;52.346;13.096;2024-01-06T10:45:00;105.90;;;28.63;;
2618;SDS011;1319;52.346;13.096;2024-01-06T10:47:25;82.70;;;24.70;;
2618;SDS011;1319;52.346;13.096;2024-01-06T10:49:55;86.20;;;25.50;;
2618;SDS011;1319;52.346;13.096;2024-01-06T10:52:23;98.37;;;26.80;;
2618;SDS011;1319;52.346;13.096;2024-01-06T10:54:48;81.97;;;25.57;;
2618;SDS011;1319;52.346;13.096;2024-01-06T10:57:16;89.50;;;26.87;;
2618;SDS011;1319;52.346;13.096;2024-01-06T10:59:42;92.97;;;27.90;;
2618;SDS011;1319;52.346;13.096;2024-01-06T11:02:08;76.80;;;21.53;;
2618;SDS011;1319;52.346;13.096;2024-01-06T11:04:35;96.97;;;27.97;;
2618;SDS011;1319;52.346;13.096;2024-01-06T11:07:01;90.80;;;26.13;;
2618;SDS011;1319;52.346;13.096;2024-01-06T11:09:31;99.37;;;29.37;;
2618;SDS011;1319;52.346;13.096;2024-01-06T11:11:58;98.17;;;28.17;;
2618;SDS011;1319;52.346;13.096;2024-01-06T11:14:27;94.67;;;29.27;;
2618;SDS011;1319;52.346;13.096;2024-01-06T11:16:53;94.80;;;30.47;;
2618;SDS011;1319;52.346;13.096;2024-01-06T11:22:19;95.83;;;28.37;;
2618;SDS011;1319;52.346;13.096;2024-01-06T11:24:48;87.23;;;27.37;;
2618;SDS011;1319;52.346;13.096;2024-01-06T11:27:20;101.27;;;29.97;;
2618;SDS011;1319;52.346;13.096;2024-01-06T11:29:46;92.30;;;29.87;;
2618;SDS011;1319;52.346;13.096;2024-01-06T11:34:49;79.87;;;24.83;;
2618;SDS011;1319;52.346;13.096;2024-01-06T11:37:15;61.50;;;21.37;;
2618;SDS011;1319;52.346;13.096;2024-01-06T11:39:42;85.27;;;26.97;;
2618;SDS011;1319;52.346;13.096;2024-01-06T11:42:11;86.33;;;27.30;;
2618;SDS011;1319;52.346;13.096;2024-01-06T11:44:37;93.77;;;29.03;;
2618;SDS011;1319;52.346;13.096;2024-01-06T11:47:02;80.87;;;27.57;;
2618;SDS011;1319;52.346;13.096;2024-01-06T11:49:29;99.40;;;30.27;;
2618;SDS011;1319;52.346;13.096;2024-01-06T11:51:54;81.90;;;27.17;;
2618;SDS011;1319;52.346;13.096;2024-01-06T11:54:20;83.30;;;28.27;;
2618;SDS011;1319;52.346;13.096;2024-01-06T11:56:46;80.60;;;26.30;;
2618;SDS011;1319;52.346;13.096;2024-01-06T11:59:11;66.87;;;22.67;;
2618;SDS011;1319;52.346;13.096;2024-01-06T12:01:37;80.73;;;27.93;;
2618;SDS011;1319;52.346;13.096;2024-01-06T12:04:03;85.67;;;29.53;;
2618;SDS011;1319;52.346;13.096;2024-01-06T12:06:30;78.53;;;26.00;;
2618;SDS011;1319;52.346;13.096;2024-01-06T12:09:03;82.67;;;28.50;;
2618;SDS011;1319;52.346;13.096;2024-01-06T12:11:28;69.73;;;23.63;;
2618;SDS011;1319;52.346;13.096;2024-01-06T12:13:53;79.23;;;27.23;;
2618;SDS011;1319;52.346;13.096;2024-01-06T12:16:18;74.13;;;25.80;;
2618;SDS011;1319;52.346;13.096;2024-01-06T12:18:43;80.47;;;27.17;;
2618;SDS011;1319;52.346;13.096;2024-01-06T12:21:09;72.43;;;26.73;;
2618;SDS011;1319;52.346;13.096;2024-01-06T12:23:34;78.57;;;25.33;;
2618;SDS011;1319;52.346;13.096;2024-01-06T12:26:00;77.10;;;27.13;;
2618;SDS011;1319;52.346;13.096;2024-01-06T12:28:26;85.43;;;29.33;;
2618;SDS011;1319;52.346;13.096;2024-01-06T12:30:52;71.00;;;26.83;;
2618;SDS011;1319;52.346;13.096;2024-01-06T12:33:18;74.13;;;24.47;;
2618;SDS011;1319;52.346;13.096;2024-01-06T12:35:43;78.83;;;27.57;;
2618;SDS011;1319;52.346;13.096;2024-01-06T12:38:08;73.97;;;25.20;;
2618;SDS011;1319;52.346;13.096;2024-01-06T12:40:37;68.80;;;25.30;;
2618;SDS011;1319;52.346;13.096;2024-01-06T12:43:03;73.73;;;27.00;;
2618;SDS011;1319;52.346;13.096;2024-01-06T12:45:29;81.03;;;28.40;;
2618;SDS011;1319;52.346;13.096;2024-01-06T12:47:54;79.23;;;26.50;;
2618;SDS011;1319;52.346;13.096;2024-01-06T12:50:19;74.77;;;26.97;;
2618;SDS011;1319;52.346;13.096;2024-01-06T12:52:44;71.77;;;27.33;;
2618;SDS011;1319;52.346;13.096;2024-01-06T12:55:11;76.33;;;26.77;;
2618;SDS011;1319;52.346;13.096;2024-01-06T12:57:36;75.40;;;27.30;;
2618;SDS011;1319;52.346;13.096;2024-01-06T13:00:01;71.03;;;25.93;;
2618;SDS011;1319;52.346;13.096;2024-01-06T13:02:27;79.23;;;28.53;;
2618;SDS011;1319;52.346;13.096;2024-01-06T13:04:52;68.63;;;25.83;;
2618;SDS011;1319;52.346;13.096;2024-01-06T13:07:17;71.27;;;26.20;;
2618;SDS011;1319;52.346;13.096;2024-01-06T13:09:42;68.63;;;25.17;;
2618;SDS011;1319;52.346;13.096;2024-01-06T13:12:07;60.70;;;23.73;;
2618;SDS011;1319;52.346;13.096;2024-01-06T13:14:33;71.50;;;28.57;;
2618;SDS011;1319;52.346;13.096;2024-01-06T13:16:58;74.37;;;26.73;;
2618;SDS011;1319;52.346;13.096;2024-01-06T13:19:24;69.90;;;28.37;;
2618;SDS011;1319;52.346;13.096;2024-01-06T13:21:50;75.97;;;27.40;;
2618;SDS011;1319;52.346;13.096;2024-01-06T13:24:15;68.67;;;24.93;;
2618;SDS011;1319;52.346;13.096;2024-01-06T13:26:40;68.47;;;25.90;;
2618;SDS011;1319;52.346;13.096;2024-01-06T13:29:06;68.73;;;23.27;;
2618;SDS011;1319;52.346;13.096;2024-01-06T13:31:31;78.50;;;28.00;;
2618;SDS011;1319;52.346;13.096;2024-01-06T13:33:57;75.87;;;26.47;;
2618;SDS011;1319;52.346;13.096;2024-01-06T13:36:22;62.87;;;24.43;;
2618;SDS011;1319;52.346;13.096;2024-01-06T13:38:48;61.13;;;23.43;;
2618;SDS011;1319;52.346;13.096;2024-01-06T13:41:13;75.77;;;27.17;;
2618;SDS011;1319;52.346;13.096;2024-01-06T13:43:38;53.70;;;21.50;;
2618;SDS011;1319;52.346;13.096;2024-01-06T13:46:04;58.90;;;23.63;;
2618;SDS011;1319;52.346;13.096;2024-01-06T13:48:29;70.30;;;26.53;;
2618;SDS011;1319;52.346;13.096;2024-01-06T13:50:54;73.07;;;26.97;;
2618;SDS011;1319;52.346;13.096;2024-01-06T13:53:19;73.03;;;26.43;;
2618;SDS011;1319;52.346;13.096;2024-01-06T13:55:45;55.97;;;21.87;;
2618;SDS011;1319;52.346;13.096;2024-01-06T13:58:10;72.47;;;27.07;;
2618;SDS011;1319;52.346;13.096;2024-01-06T14:00:35;79.33;;;29.93;;
2618;SDS011;1319;52.346;13.096;2024-01-06T14:03:01;83.27;;;29.47;;
2618;SDS011;1319;52.346;13.096;2024-01-06T14:05:26;67.37;;;23.30;;
2618;SDS011;1319;52.346;13.096;2024-01-06T14:07:51;66.10;;;24.30;;
2618;SDS011;1319;52.346;13.096;2024-01-06T14:10:17;72.83;;;25.27;;
2618;SDS011;1319;52.346;13.096;2024-01-06T14:12:42;74.37;;;26.20;;
2618;SDS011;1319;52.346;13.096;2024-01-06T14:15:07;69.50;;;24.73;;
2618;SDS011;1319;52.346;13.096;2024-01-06T14:17:33;57.60;;;23.23;;
2618;SDS011;1319;52.346;13.096;2024-01-06T14:19:58;63.70;;;24.33;;
2618;SDS011;1319;52.346;13.096;2024-01-06T14:22:24;63.30;;;23.77;;
2618;SDS011;1319;52.346;13.096;2024-01-06T14:24:49;59.50;;;22.77;;
2618;SDS011;1319;52.346;13.096;2024-01-06T14:27:15;58.03;;;22.77;;